createdAt,value
2022-12-31T00:01:15.430Z,24.05
2022-12-31T00:03:45.158Z,23.85
2022-12-31T00:06:24.708Z,24.73
2022-12-31T00:08:58.621Z,22.40
2022-12-31T00:11:27.789Z,23.75
2022-12-31T00:13:56.288Z,24.27
2022-12-31T00:16:26.704Z,25.27
2022-12-31T00:18:56.485Z,23.10
2022-12-31T00:21:23.942Z,25.63
2022-12-31T00:23:52.703Z,23.85
2022-12-31T00:26:25.491Z,24.05
2022-12-31T00:28:54.449Z,25.23
2022-12-31T00:31:25.049Z,24.13
2022-12-31T00:33:52.857Z,23.73
2022-12-31T00:36:23.202Z,24.35
2022-12-31T00:38:54.725Z,23.80
2022-12-31T00:41:23.827Z,24.33
2022-12-31T00:43:51.810Z,25.40
2022-12-31T00:46:21.895Z,23.30
2022-12-31T00:48:49.722Z,25.20
2022-12-31T00:51:21.385Z,24.00
2022-12-31T00:53:50.146Z,24.08
2022-12-31T00:56:20.580Z,24.97
2022-12-31T00:58:48.664Z,24.13
2022-12-31T01:01:26.939Z,22.65
2022-12-31T01:03:59.407Z,23.60
2022-12-31T01:06:26.892Z,23.58
2022-12-31T01:08:55.946Z,25.37
2022-12-31T01:11:24.608Z,25.08
2022-12-31T01:13:54.774Z,26.05
2022-12-31T01:16:25.316Z,23.92
2022-12-31T01:18:53.048Z,24.83
2022-12-31T01:21:21.514Z,25.57
2022-12-31T01:23:49.039Z,25.67
2022-12-31T01:26:19.002Z,23.02
2022-12-31T01:28:47.028Z,25.63
2022-12-31T01:31:18.622Z,23.92
2022-12-31T01:33:46.567Z,25.40
2022-12-31T01:36:20.375Z,23.63
2022-12-31T01:38:53.540Z,23.52
2022-12-31T01:41:24.371Z,23.95
2022-12-31T01:43:57.360Z,24.20
2022-12-31T01:46:52.015Z,24.60
2022-12-31T01:49:26.769Z,24.60
2022-12-31T01:52:34.967Z,24.42
2022-12-31T01:55:15.201Z,22.77
2022-12-31T01:57:44.861Z,23.35
2022-12-31T02:00:14.611Z,23.57
2022-12-31T02:02:44.835Z,22.85
2022-12-31T02:05:27.551Z,24.42
2022-12-31T02:07:58.189Z,23.50
2022-12-31T02:10:25.920Z,24.02
2022-12-31T02:12:53.451Z,23.97
2022-12-31T02:15:27.082Z,24.17
2022-12-31T02:18:23.628Z,22.73
2022-12-31T02:21:15.220Z,21.67
2022-12-31T02:24:21.584Z,21.95
2022-12-31T02:26:57.937Z,22.60
2022-12-31T02:29:49.224Z,22.75
2022-12-31T02:32:25.771Z,21.73
2022-12-31T02:34:58.330Z,22.70
2022-12-31T02:37:29.475Z,22.35
2022-12-31T02:39:58.169Z,22.77
2022-12-31T02:42:26.074Z,23.60
2022-12-31T02:44:53.490Z,21.83
2022-12-31T02:47:30.138Z,22.50
2022-12-31T02:50:06.879Z,22.40
2022-12-31T02:52:52.786Z,22.90
2022-12-31T02:55:42.080Z,22.50
2022-12-31T02:58:50.742Z,20.25
2022-12-31T03:01:47.459Z,19.65
2022-12-31T03:04:34.481Z,20.75
2022-12-31T03:07:18.269Z,21.07
2022-12-31T03:09:45.618Z,20.15
2022-12-31T03:12:33.037Z,20.90
2022-12-31T03:15:01.020Z,20.65
2022-12-31T03:17:28.557Z,20.70
2022-12-31T03:20:14.977Z,20.07
2022-12-31T03:22:43.831Z,18.85
2022-12-31T03:25:33.750Z,19.05
2022-12-31T03:28:04.105Z,19.75
2022-12-31T03:30:32.488Z,19.98
2022-12-31T03:33:00.916Z,20.53
2022-12-31T03:35:30.043Z,20.77
2022-12-31T03:37:58.480Z,19.92
2022-12-31T03:40:28.033Z,21.52
2022-12-31T03:42:56.054Z,21.50
2022-12-31T03:45:24.506Z,21.53
2022-12-31T03:47:52.710Z,22.85
2022-12-31T03:50:20.834Z,20.27
2022-12-31T03:52:48.282Z,21.20
2022-12-31T03:55:15.938Z,21.38
2022-12-31T03:57:43.633Z,21.57
2022-12-31T04:00:15.128Z,21.30
2022-12-31T04:02:42.680Z,21.95
2022-12-31T04:05:10.930Z,20.10
2022-12-31T04:07:38.954Z,21.33
2022-12-31T04:10:08.473Z,22.40
2022-12-31T04:12:37.527Z,21.20
2022-12-31T04:15:05.786Z,23.77
2022-12-31T04:17:33.783Z,22.73
2022-12-31T04:20:05.297Z,22.88
2022-12-31T04:22:33.102Z,22.57
2022-12-31T04:25:00.523Z,23.02
2022-12-31T04:27:27.991Z,23.65
2022-12-31T04:29:55.423Z,22.73
2022-12-31T04:32:22.763Z,23.60
2022-12-31T04:34:50.275Z,21.83
2022-12-31T04:37:17.725Z,22.58
2022-12-31T04:39:45.123Z,22.65
2022-12-31T04:42:12.883Z,20.45
2022-12-31T04:44:40.417Z,20.13
2022-12-31T04:47:07.756Z,20.93
2022-12-31T04:49:35.147Z,19.92
2022-12-31T04:52:02.536Z,21.65
2022-12-31T04:54:30.238Z,20.17
2022-12-31T04:56:57.982Z,17.98
2022-12-31T04:59:25.926Z,18.33
2022-12-31T05:01:53.559Z,18.98
2022-12-31T05:04:21.089Z,18.38
2022-12-31T05:06:48.651Z,18.45
2022-12-31T05:09:16.097Z,19.75
2022-12-31T05:11:43.594Z,18.53
2022-12-31T05:14:11.660Z,17.67
2022-12-31T05:16:40.269Z,19.15
2022-12-31T05:19:09.976Z,17.92
2022-12-31T05:21:37.397Z,17.50
2022-12-31T05:24:06.163Z,18.17
2022-12-31T05:26:33.616Z,18.80
2022-12-31T05:29:01.454Z,18.25
2022-12-31T05:31:29.200Z,17.25
2022-12-31T05:33:57.083Z,17.75
2022-12-31T05:36:25.078Z,18.80
2022-12-31T05:38:52.448Z,18.33
2022-12-31T05:41:19.948Z,19.33
2022-12-31T05:43:47.308Z,18.08
2022-12-31T05:46:16.530Z,17.73
2022-12-31T05:48:43.949Z,17.57
2022-12-31T05:51:11.518Z,16.88
2022-12-31T05:53:40.466Z,16.90
2022-12-31T05:56:07.861Z,16.25
2022-12-31T05:58:36.347Z,16.80
2022-12-31T06:01:03.834Z,16.23
2022-12-31T06:03:32.033Z,18.25
2022-12-31T06:06:01.898Z,16.48
2022-12-31T06:08:29.355Z,16.20
2022-12-31T06:10:57.433Z,17.23
2022-12-31T06:13:24.931Z,16.00
2022-12-31T06:15:52.429Z,16.15
2022-12-31T06:18:20.251Z,16.02
2022-12-31T06:20:50.617Z,15.10
2022-12-31T06:23:18.263Z,17.60
2022-12-31T06:25:45.682Z,17.27
2022-12-31T06:28:20.013Z,17.73
2022-12-31T06:30:48.511Z,17.70
2022-12-31T06:33:15.996Z,17.17
2022-12-31T06:35:43.511Z,16.88
2022-12-31T06:38:11.031Z,16.83
2022-12-31T06:40:38.567Z,17.02
2022-12-31T06:43:07.429Z,17.45
2022-12-31T06:45:34.804Z,18.00
2022-12-31T06:48:02.150Z,16.30
2022-12-31T06:50:29.921Z,16.47
2022-12-31T06:52:57.728Z,15.85
2022-12-31T06:55:25.487Z,17.17
2022-12-31T06:57:53.538Z,17.20
2022-12-31T07:00:21.831Z,17.40
2022-12-31T07:03:25.950Z,19.37
2022-12-31T07:06:02.737Z,17.08
2022-12-31T07:08:41.615Z,14.82
2022-12-31T07:11:32.784Z,15.23
2022-12-31T07:14:32.790Z,16.23
2022-12-31T07:17:36.048Z,17.33
2022-12-31T07:20:11.024Z,18.60
2022-12-31T07:22:39.194Z,19.70
2022-12-31T07:25:08.251Z,19.98
2022-12-31T07:28:02.895Z,18.40
2022-12-31T07:30:42.025Z,17.77
2022-12-31T07:33:27.553Z,17.83
2022-12-31T07:36:17.044Z,17.88
2022-12-31T07:38:53.538Z,18.27
2022-12-31T07:41:42.677Z,21.17
2022-12-31T07:44:37.743Z,18.97
2022-12-31T07:47:12.465Z,18.90
2022-12-31T07:49:43.725Z,18.95
2022-12-31T07:52:11.303Z,19.05
2022-12-31T07:54:39.558Z,21.77
2022-12-31T07:57:07.502Z,27.57
2022-12-31T07:59:46.685Z,36.88
2022-12-31T08:02:29.555Z,27.58
2022-12-31T08:05:27.382Z,25.63
2022-12-31T08:08:36.794Z,22.00
2022-12-31T08:12:04.591Z,27.80
2022-12-31T08:14:36.734Z,18.85
2022-12-31T08:17:04.493Z,17.10
2022-12-31T08:19:33.467Z,17.70
2022-12-31T08:22:14.880Z,17.70
2022-12-31T08:24:52.145Z,19.43
2022-12-31T08:27:32.131Z,15.18
2022-12-31T08:30:09.254Z,14.07
2022-12-31T08:32:52.848Z,13.32
2022-12-31T08:35:41.801Z,14.50
2022-12-31T08:38:27.661Z,13.97
2022-12-31T08:41:27.283Z,14.45
2022-12-31T08:44:13.091Z,14.85
2022-12-31T08:47:07.494Z,15.63
2022-12-31T08:49:36.098Z,15.88
2022-12-31T08:52:04.258Z,15.80
2022-12-31T08:54:31.919Z,15.38
2022-12-31T08:57:15.049Z,15.38
2022-12-31T09:00:01.554Z,15.15
2022-12-31T09:02:48.076Z,15.70
2022-12-31T09:05:39.363Z,14.40
2022-12-31T09:08:45.350Z,14.55
2022-12-31T09:11:24.197Z,16.63
2022-12-31T09:14:12.468Z,15.20
2022-12-31T09:16:48.973Z,17.35
2022-12-31T09:19:16.494Z,19.00
2022-12-31T09:21:46.826Z,18.33
2022-12-31T09:24:16.121Z,18.23
2022-12-31T09:27:05.441Z,18.02
2022-12-31T09:30:04.319Z,18.35
2022-12-31T09:33:01.747Z,14.17
2022-12-31T09:35:50.366Z,15.02
2022-12-31T09:38:26.764Z,15.55
2022-12-31T09:41:28.400Z,15.48
2022-12-31T09:44:25.310Z,15.52
2022-12-31T09:46:59.805Z,15.70
2022-12-31T09:49:55.057Z,15.77
2022-12-31T09:52:40.878Z,14.98
2022-12-31T09:55:08.177Z,15.10
2022-12-31T09:57:42.443Z,16.20
2022-12-31T10:00:16.517Z,14.83
2022-12-31T10:03:07.485Z,15.35
2022-12-31T10:05:53.531Z,15.55
2022-12-31T10:08:38.952Z,15.05
2022-12-31T10:11:19.998Z,14.95
2022-12-31T10:14:26.460Z,13.70
2022-12-31T10:17:18.977Z,13.52
2022-12-31T10:19:58.120Z,13.98
2022-12-31T10:22:43.343Z,12.57
2022-12-31T10:25:39.658Z,13.40
2022-12-31T10:28:18.574Z,12.50
2022-12-31T10:31:15.169Z,12.50
2022-12-31T10:33:51.655Z,12.90
2022-12-31T10:36:43.067Z,12.82
2022-12-31T10:39:45.082Z,12.38
2022-12-31T10:42:40.646Z,13.50
2022-12-31T10:45:35.941Z,12.50
2022-12-31T10:48:40.470Z,11.80
2022-12-31T10:51:29.350Z,10.27
2022-12-31T10:54:15.998Z,10.90
2022-12-31T10:57:28.548Z,11.03
2022-12-31T11:00:11.244Z,12.32
2022-12-31T11:02:42.694Z,23.73
2022-12-31T11:06:05.723Z,24.13
2022-12-31T11:08:52.351Z,19.33
2022-12-31T11:11:32.436Z,21.23
2022-12-31T11:14:57.247Z,24.08
2022-12-31T11:17:33.743Z,21.38
2022-12-31T11:20:31.323Z,19.75
2022-12-31T11:23:17.353Z,22.70
2022-12-31T11:26:28.957Z,24.87
2022-12-31T11:29:09.871Z,19.75
2022-12-31T11:32:14.535Z,20.90
2022-12-31T11:34:44.794Z,25.00
2022-12-31T11:37:47.441Z,27.30
2022-12-31T11:40:43.795Z,25.20
2022-12-31T11:43:31.387Z,26.60
2022-12-31T11:46:16.840Z,27.40
2022-12-31T11:49:20.029Z,26.52
2022-12-31T11:52:13.527Z,25.15
2022-12-31T11:55:19.776Z,25.67
2022-12-31T11:57:50.588Z,24.67
2022-12-31T12:00:24.621Z,24.75
2022-12-31T12:02:57.094Z,26.27
2022-12-31T12:05:27.010Z,24.48
2022-12-31T12:07:54.839Z,22.40
2022-12-31T12:10:30.456Z,62.25
2022-12-31T12:13:27.544Z,59.50
2022-12-31T12:16:07.098Z,23.38
2022-12-31T12:18:41.210Z,58.67
2022-12-31T12:21:21.459Z,17.53
2022-12-31T12:24:16.840Z,18.23
2022-12-31T12:26:47.947Z,17.77
2022-12-31T12:29:34.679Z,16.20
2022-12-31T12:32:04.429Z,17.25
2022-12-31T12:34:40.153Z,18.33
2022-12-31T12:37:30.355Z,17.73
2022-12-31T12:40:11.609Z,16.92
2022-12-31T12:42:47.903Z,17.30
2022-12-31T12:45:18.713Z,17.33
2022-12-31T12:47:49.674Z,18.00
2022-12-31T12:50:22.284Z,18.67
2022-12-31T12:53:14.477Z,18.35
2022-12-31T12:55:54.672Z,15.82
2022-12-31T12:58:49.545Z,15.65
2022-12-31T13:01:43.155Z,13.90
2022-12-31T13:04:35.694Z,14.95
2022-12-31T13:07:30.751Z,14.65
2022-12-31T13:10:22.887Z,15.52
2022-12-31T13:13:25.512Z,16.45
2022-12-31T13:16:19.594Z,17.27
2022-12-31T13:18:53.471Z,17.52
2022-12-31T13:21:28.677Z,17.38
2022-12-31T13:24:05.530Z,16.55
2022-12-31T13:26:36.354Z,17.08
2022-12-31T13:29:04.757Z,16.63
2022-12-31T13:31:40.036Z,20.48
2022-12-31T13:34:14.676Z,21.38
2022-12-31T13:36:43.683Z,21.58
2022-12-31T13:39:23.999Z,22.33
2022-12-31T13:42:10.597Z,21.17
2022-12-31T13:44:50.309Z,20.88
2022-12-31T13:47:38.745Z,21.95
2022-12-31T13:50:33.510Z,21.90
2022-12-31T13:53:27.370Z,19.63
2022-12-31T13:56:03.857Z,22.50
2022-12-31T13:58:50.209Z,23.50
2022-12-31T14:01:34.322Z,23.13
2022-12-31T14:04:16.834Z,21.77
2022-12-31T14:07:07.459Z,21.27
2022-12-31T14:09:36.378Z,20.90
2022-12-31T14:12:24.166Z,21.42
2022-12-31T14:15:13.483Z,21.05
2022-12-31T14:18:09.367Z,19.67
2022-12-31T14:20:47.863Z,18.33
2022-12-31T14:23:43.539Z,18.90
2022-12-31T14:26:33.185Z,17.70
2022-12-31T14:29:20.856Z,18.02
2022-12-31T14:31:52.160Z,16.90
2022-12-31T14:34:34.605Z,16.55
2022-12-31T14:37:14.148Z,15.97
2022-12-31T14:39:54.720Z,15.27
2022-12-31T14:42:56.697Z,15.07
2022-12-31T14:45:46.697Z,14.40
2022-12-31T14:48:26.036Z,14.40
2022-12-31T14:50:54.101Z,13.13
2022-12-31T14:53:27.113Z,14.43
2022-12-31T14:56:03.988Z,14.48
2022-12-31T14:58:38.363Z,13.55
2022-12-31T15:01:19.617Z,14.13
2022-12-31T15:03:47.265Z,14.87
2022-12-31T15:06:23.992Z,13.88
2022-12-31T15:09:16.259Z,14.95
2022-12-31T15:12:10.504Z,14.23
2022-12-31T15:15:26.987Z,51.22
2022-12-31T15:18:07.529Z,30.30
2022-12-31T15:20:55.319Z,23.80
2022-12-31T15:23:27.989Z,20.85
2022-12-31T15:25:59.988Z,20.45
2022-12-31T15:28:35.945Z,23.05
2022-12-31T15:31:19.896Z,30.23
2022-12-31T15:34:04.735Z,25.58
2022-12-31T15:36:35.923Z,24.05
2022-12-31T15:39:12.531Z,24.42
2022-12-31T15:42:10.288Z,33.63
2022-12-31T15:44:44.954Z,32.27
2022-12-31T15:47:33.550Z,25.83
2022-12-31T15:50:17.467Z,29.52
2022-12-31T15:52:52.840Z,28.63
2022-12-31T15:55:33.442Z,28.55
2022-12-31T15:58:07.219Z,28.63
2022-12-31T16:01:15.022Z,26.95
2022-12-31T16:03:46.901Z,28.15
2022-12-31T16:06:16.574Z,23.13
2022-12-31T16:08:49.167Z,28.42
2022-12-31T16:11:17.678Z,30.50
2022-12-31T16:13:51.094Z,33.53
2022-12-31T16:16:24.130Z,35.30
2022-12-31T16:18:53.922Z,31.45
2022-12-31T16:21:35.562Z,27.27
2022-12-31T16:24:23.866Z,24.60
2022-12-31T16:26:55.362Z,22.15
2022-12-31T16:29:24.845Z,23.70
2022-12-31T16:31:54.171Z,19.25
2022-12-31T16:34:27.423Z,18.80
2022-12-31T16:36:59.988Z,17.90
2022-12-31T16:39:39.201Z,32.30
2022-12-31T16:42:23.027Z,32.90
2022-12-31T16:44:52.757Z,40.03
2022-12-31T16:47:32.747Z,43.58
2022-12-31T16:50:08.144Z,35.33
2022-12-31T16:52:42.542Z,34.15
2022-12-31T16:55:16.867Z,24.30
2022-12-31T16:57:57.054Z,25.25
2022-12-31T17:00:28.216Z,21.45
2022-12-31T17:03:05.677Z,20.67
2022-12-31T17:05:36.562Z,23.17
2022-12-31T17:08:25.093Z,25.15
2022-12-31T17:10:52.832Z,24.52
2022-12-31T17:13:30.791Z,23.60
2022-12-31T17:15:59.838Z,23.70
2022-12-31T17:18:35.394Z,18.40
2022-12-31T17:21:09.716Z,24.35
2022-12-31T17:23:39.128Z,33.42
2022-12-31T17:26:21.187Z,28.98
2022-12-31T17:28:51.430Z,20.90
2022-12-31T17:31:41.194Z,17.65
2022-12-31T17:38:24.300Z,15.15
2022-12-31T17:40:56.060Z,15.07
2022-12-31T17:43:25.757Z,23.23
2022-12-31T17:45:56.401Z,34.70
2022-12-31T17:48:27.875Z,37.30
2022-12-31T17:50:59.338Z,32.35
2022-12-31T17:53:30.346Z,25.48
2022-12-31T17:56:03.397Z,22.80
2022-12-31T17:58:53.803Z,22.48
2022-12-31T18:01:23.733Z,21.63
2022-12-31T18:03:51.432Z,18.85
2022-12-31T18:06:22.106Z,14.35
2022-12-31T18:08:49.685Z,12.97
2022-12-31T18:11:24.353Z,13.00
2022-12-31T18:13:53.500Z,14.88
2022-12-31T18:16:20.932Z,21.88
2022-12-31T18:18:48.495Z,30.80
2022-12-31T18:21:32.871Z,33.10
2022-12-31T18:26:30.192Z,29.13
2022-12-31T18:29:01.668Z,26.17
2022-12-31T18:31:31.151Z,22.35
2022-12-31T18:33:59.547Z,20.57
2022-12-31T18:36:28.496Z,19.33
2022-12-31T18:38:56.140Z,20.85
2022-12-31T18:41:28.248Z,27.40
2022-12-31T18:43:56.358Z,29.90
2022-12-31T18:46:25.127Z,25.73
2022-12-31T18:48:58.267Z,24.48
2022-12-31T18:51:32.152Z,22.02
2022-12-31T18:54:04.182Z,22.00
2022-12-31T18:56:32.442Z,18.98
2022-12-31T18:59:00.125Z,15.33
2022-12-31T19:01:27.578Z,16.15
2022-12-31T19:04:00.873Z,17.30
2022-12-31T19:06:29.676Z,21.67
2022-12-31T19:09:00.872Z,21.50
2022-12-31T19:11:28.920Z,19.80
2022-12-31T19:13:56.357Z,15.85
2022-12-31T19:16:23.949Z,15.10
2022-12-31T19:18:51.436Z,22.75
2022-12-31T19:21:22.971Z,16.95
2022-12-31T19:23:51.257Z,15.67
2022-12-31T19:26:21.202Z,18.58
2022-12-31T19:28:51.093Z,20.60
2022-12-31T19:31:19.067Z,20.13
2022-12-31T19:33:46.604Z,18.45
2022-12-31T19:36:19.883Z,18.53
2022-12-31T19:38:47.780Z,17.20
2022-12-31T19:41:20.018Z,18.48
2022-12-31T19:43:48.409Z,17.27
2022-12-31T19:46:18.141Z,18.10
2022-12-31T19:48:46.003Z,17.27
2022-12-31T19:51:18.272Z,15.95
2022-12-31T19:53:46.913Z,14.43
2022-12-31T19:56:17.471Z,14.52
2022-12-31T19:58:45.147Z,13.50
2022-12-31T20:01:24.196Z,14.37
2022-12-31T20:03:52.464Z,15.77
2022-12-31T20:06:20.232Z,16.85
2022-12-31T20:08:47.689Z,15.88
2022-12-31T20:11:18.961Z,17.08
2022-12-31T20:13:47.595Z,17.10
2022-12-31T20:16:18.054Z,16.00
2022-12-31T20:18:47.149Z,15.80
2022-12-31T20:21:20.133Z,13.60
2022-12-31T20:23:48.928Z,13.00
2022-12-31T20:26:18.223Z,12.53
2022-12-31T20:28:46.355Z,13.10
2022-12-31T20:31:20.205Z,12.75
2022-12-31T20:33:49.917Z,9.27
2022-12-31T20:36:18.605Z,9.70
2022-12-31T20:38:46.415Z,14.10
2022-12-31T20:41:19.683Z,15.20
2022-12-31T20:43:47.426Z,17.50
2022-12-31T20:46:20.986Z,18.20
2022-12-31T20:48:50.035Z,20.65
2022-12-31T20:51:18.356Z,15.93
2022-12-31T20:53:48.394Z,13.48
2022-12-31T20:56:17.898Z,13.82
2022-12-31T20:58:45.607Z,13.57
2022-12-31T21:01:14.212Z,12.98
2022-12-31T21:06:35.328Z,11.18
2022-12-31T21:09:06.375Z,8.48
2022-12-31T21:11:52.494Z,7.72
2022-12-31T21:14:21.002Z,6.75
2022-12-31T21:16:48.419Z,5.97
2022-12-31T21:19:15.990Z,6.00
2022-12-31T21:21:43.361Z,5.50
2022-12-31T21:24:11.139Z,5.45
2022-12-31T21:26:38.591Z,5.75
2022-12-31T21:29:08.110Z,6.17
2022-12-31T21:31:35.636Z,5.68
2022-12-31T21:34:03.045Z,6.13
2022-12-31T21:36:30.455Z,5.43
2022-12-31T21:38:58.381Z,5.60
2022-12-31T21:41:44.897Z,4.90
2022-12-31T21:44:12.324Z,5.15
2022-12-31T21:46:54.652Z,5.28
2022-12-31T21:49:27.235Z,5.80
2022-12-31T21:52:12.994Z,6.28
2022-12-31T21:55:09.504Z,6.23
2022-12-31T21:57:52.185Z,9.27
2022-12-31T22:00:43.565Z,10.38
2022-12-31T22:03:24.734Z,10.02
2022-12-31T22:06:02.184Z,10.65
2022-12-31T22:08:31.186Z,10.60
2022-12-31T22:10:59.018Z,14.30
2022-12-31T22:13:26.980Z,20.05
2022-12-31T22:16:04.006Z,24.35
2022-12-31T22:18:34.606Z,24.02
2022-12-31T22:21:15.707Z,16.57
2022-12-31T22:23:46.958Z,19.73
2022-12-31T22:26:16.097Z,9.55
2022-12-31T22:28:44.974Z,9.52
2022-12-31T22:31:30.695Z,7.45
2022-12-31T22:33:58.964Z,6.80
2022-12-31T22:36:26.965Z,6.78
2022-12-31T22:38:58.700Z,7.60
2022-12-31T22:41:28.238Z,7.75
2022-12-31T22:44:03.723Z,8.07
2022-12-31T22:46:33.217Z,7.27
2022-12-31T22:49:02.535Z,7.18
2022-12-31T22:51:55.158Z,8.45
2022-12-31T22:54:18.614Z,8.65
2022-12-31T22:56:46.044Z,8.82
2022-12-31T22:59:13.550Z,8.37
2022-12-31T23:01:41.263Z,8.90
2022-12-31T23:04:08.978Z,8.85
2022-12-31T23:06:43.879Z,8.50
2022-12-31T23:09:31.632Z,9.02
2022-12-31T23:11:59.761Z,9.13
2022-12-31T23:14:45.873Z,11.68
2022-12-31T23:17:37.537Z,11.73
2022-12-31T23:20:25.860Z,9.73
2022-12-31T23:23:11.747Z,9.13
2022-12-31T23:25:50.364Z,9.10
2022-12-31T23:28:23.322Z,9.60
2022-12-31T23:30:52.007Z,9.55
2022-12-31T23:33:22.134Z,11.20
2022-12-31T23:35:49.631Z,9.15
2022-12-31T23:38:18.630Z,8.10
2022-12-31T23:40:49.071Z,7.10
2022-12-31T23:43:22.236Z,6.80
2022-12-31T23:45:51.959Z,8.82
2022-12-31T23:48:20.039Z,10.15
2022-12-31T23:50:53.552Z,8.20
2022-12-31T23:53:25.172Z,8.93
2022-12-31T23:55:53.177Z,8.45
2022-12-31T23:58:22.190Z,9.95
